Time;durP1;ratioP1;P1;durP2;ratioP2;P2;SDS_P1;SDS_P2;PMS_P1;PMS_P2;Temp;Humidity;BMP_temperature;BMP_pressure;BME280_temperature;BME280_humidity;BME280_pressure;Samples;Min_cycle;Max_cycle;Signal;HPM_P1;HPM_P2
2022/11/16 00:01:49;;;;;;;47.65;24.58;;;;;;;;;;5114442;28;20467;-72
2022/11/16 00:04:34;;;;;;;41.58;21.90;;;;;;;;;;5114500;28;20098;-73
2022/11/16 00:07:20;;;;;;;44.10;21.92;;;;;;;;;;5099881;28;20352;-71
2022/11/16 00:10:06;;;;;;;39.38;21.25;;;;;;;;;;5112745;28;20019;-72
2022/11/16 00:12:51;;;;;;;53.95;29.67;;;;;;;;;;5115309;28;20073;-72
2022/11/16 00:15:37;;;;;;;40.30;20.70;;;;;;;;;;5115203;28;20043;-72
2022/11/16 00:18:22;;;;;;;42.50;20.17;;;;;;;;;;5114422;28;20023;-73
2022/11/16 00:21:08;;;;;;;40.13;20.05;;;;;;;;;;5114794;28;20035;-71
2022/11/16 00:23:54;;;;;;;38.88;20.70;;;;;;;;;;5115477;28;20020;-72
2022/11/16 00:26:40;;;;;;;37.85;20.00;;;;;;;;;;5100864;28;20110;-72
2022/11/16 00:29:26;;;;;;;39.72;20.60;;;;;;;;;;5114490;28;20047;-72
2022/11/16 00:32:11;;;;;;;37.13;19.33;;;;;;;;;;5099535;28;20019;-73
2022/11/16 00:34:57;;;;;;;39.33;20.70;;;;;;;;;;5114580;28;20051;-72
2022/11/16 00:37:43;;;;;;;40.65;20.20;;;;;;;;;;5114729;28;20052;-71
2022/11/16 00:40:28;;;;;;;39.05;20.13;;;;;;;;;;5114782;28;20023;-72
2022/11/16 00:43:14;;;;;;;37.50;20.00;;;;;;;;;;5113902;28;20030;-72
2022/11/16 00:45:59;;;;;;;40.28;19.60;;;;;;;;;;5100440;28;20020;-72
2022/11/16 00:48:45;;;;;;;41.10;20.73;;;;;;;;;;5114982;28;20015;-72
2022/11/16 00:51:31;;;;;;;40.60;19.90;;;;;;;;;;5099308;28;20075;-73
2022/11/16 00:54:16;;;;;;;39.95;20.05;;;;;;;;;;5114210;28;20058;-71
2022/11/16 00:57:02;;;;;;;38.63;19.73;;;;;;;;;;5114115;28;20031;-71
2022/11/16 00:59:48;;;;;;;35.80;18.88;;;;;;;;;;5113710;28;20097;-72
2022/11/16 01:02:33;;;;;;;35.42;19.67;;;;;;;;;;5114064;28;20020;-73
2022/11/16 01:05:19;;;;;;;39.50;20.33;;;;;;;;;;5114953;28;20020;-72
2022/11/16 01:08:05;;;;;;;42.60;20.67;;;;;;;;;;5113965;28;20015;-74
2022/11/16 01:10:51;;;;;;;37.08;19.05;;;;;;;;;;5114822;28;20027;-73
2022/11/16 01:13:36;;;;;;;40.80;19.65;;;;;;;;;;5113814;28;20012;-73
2022/11/16 01:16:22;;;;;;;38.70;19.30;;;;;;;;;;5114396;28;20069;-73
2022/11/16 01:19:08;;;;;;;41.33;20.35;;;;;;;;;;5115012;28;20031;-73
2022/11/16 01:21:53;;;;;;;36.67;20.33;;;;;;;;;;5114340;28;20047;-72
2022/11/16 01:24:39;;;;;;;42.38;20.20;;;;;;;;;;5118105;28;20020;-74
2022/11/16 01:27:25;;;;;;;38.80;20.30;;;;;;;;;;5117767;28;20015;-73
2022/11/16 01:30:12;;;;;;;39.75;19.42;;;;;;;;;;5117931;28;20023;-73
2022/11/16 01:32:57;;;;;;;39.95;20.17;;;;;;;;;;5101469;28;20059;-73
2022/11/16 01:35:43;;;;;;;33.08;17.73;;;;;;;;;;5118036;28;20092;-73
2022/11/16 01:38:28;;;;;;;38.00;19.13;;;;;;;;;;5117260;28;20066;-74
2022/11/16 01:41:16;;;;;;;35.67;19.00;;;;;;;;;;5117318;28;20508;-74
2022/11/16 01:44:03;;;;;;;40.90;20.63;;;;;;;;;;5116977;28;20428;-74
2022/11/16 01:46:49;;;;;;;38.55;20.08;;;;;;;;;;5117216;28;20022;-75
2022/11/16 01:49:36;;;;;;;41.40;21.10;;;;;;;;;;5117488;28;20360;-73
2022/11/16 01:52:24;;;;;;;38.88;19.88;;;;;;;;;;5102705;28;20038;-72
2022/11/16 01:55:11;;;;;;;43.40;20.48;;;;;;;;;;5117513;28;20448;-73
2022/11/16 01:57:56;;;;;;;37.38;19.40;;;;;;;;;;5116471;28;20035;-72
2022/11/16 02:00:42;;;;;;;39.17;19.77;;;;;;;;;;5117566;28;20035;-72
2022/11/16 02:03:27;;;;;;;38.17;19.10;;;;;;;;;;5117416;28;20011;-73
2022/11/16 02:06:22;;;;;;;43.55;20.10;;;;;;;;;;5116529;28;20016;-73
2022/11/16 02:10:14;;;;;;;40.28;19.70;;;;;;;;;;5116933;28;20020;-72
2022/11/16 02:12:52;;;;;;;39.72;19.73;;;;;;;;;;5116427;28;20098;-73
2022/11/16 02:15:54;;;;;;;39.58;19.83;;;;;;;;;;5116815;28;20079;-73
2022/11/16 02:18:42;;;;;;;36.17;19.65;;;;;;;;;;5117202;28;20384;-74
2022/11/16 02:21:38;;;;;;;37.60;19.77;;;;;;;;;;5115643;28;20046;-73
2022/11/16 02:24:42;;;;;;;43.35;22.08;;;;;;;;;;5116536;28;20019;-73
2022/11/16 02:27:30;;;;;;;41.10;20.88;;;;;;;;;;5117285;28;20336;-72
2022/11/16 02:30:17;;;;;;;38.65;19.65;;;;;;;;;;5116249;28;20011;-73
2022/11/16 02:33:08;;;;;;;40.92;20.83;;;;;;;;;;5116216;28;20083;-73
2022/11/16 02:35:55;;;;;;;39.55;20.30;;;;;;;;;;5102337;28;20035;-73
2022/11/16 02:38:43;;;;;;;40.47;20.25;;;;;;;;;;5116965;28;20375;-73
2022/11/16 02:41:31;;;;;;;44.15;20.80;;;;;;;;;;5117772;28;20397;-74
2022/11/16 02:44:21;;;;;;;41.58;20.52;;;;;;;;;;5125194;28;20033;-74
2022/11/16 02:47:08;;;;;;;38.28;19.67;;;;;;;;;;5118332;28;20344;-72
2022/11/16 02:49:57;;;;;;;37.63;19.58;;;;;;;;;;5116693;28;20023;-74
2022/11/16 02:52:42;;;;;;;41.70;20.88;;;;;;;;;;5115626;28;20020;-73
2022/11/16 02:55:29;;;;;;;38.28;19.70;;;;;;;;;;5102527;28;20034;-73
2022/11/16 02:58:19;;;;;;;41.40;20.33;;;;;;;;;;5115075;28;20053;-73
2022/11/16 03:01:04;;;;;;;40.65;20.02;;;;;;;;;;5116425;28;20099;-74
2022/11/16 03:04:00;;;;;;;43.15;21.52;;;;;;;;;;5100965;28;20094;-73
2022/11/16 03:06:48;;;;;;;35.33;19.05;;;;;;;;;;5101484;28;20153;-74
2022/11/16 03:09:35;;;;;;;38.80;20.08;;;;;;;;;;5114887;28;20431;-73
2022/11/16 03:12:23;;;;;;;41.65;19.90;;;;;;;;;;5102264;28;20071;-74
2022/11/16 03:15:10;;;;;;;39.28;20.48;;;;;;;;;;5101623;28;20115;-74
2022/11/16 03:17:57;;;;;;;40.17;20.67;;;;;;;;;;5101190;28;20032;-74
2022/11/16 03:20:43;;;;;;;36.78;19.10;;;;;;;;;;5116726;28;20085;-73
2022/11/16 03:23:28;;;;;;;38.75;19.33;;;;;;;;;;5115976;28;20030;-74
2022/11/16 03:26:17;;;;;;;38.92;20.63;;;;;;;;;;5101090;28;20018;-73
2022/11/16 03:29:17;;;;;;;37.33;20.15;;;;;;;;;;5115788;28;20016;-74
2022/11/16 03:32:08;;;;;;;41.50;21.50;;;;;;;;;;5116383;28;20024;-73
2022/11/16 03:34:58;;;;;;;43.90;23.00;;;;;;;;;;5114556;28;20035;-73
2022/11/16 03:37:46;;;;;;;41.03;21.52;;;;;;;;;;5100093;28;20055;-73
2022/11/16 03:40:32;;;;;;;37.42;19.63;;;;;;;;;;5100084;28;20019;-74
2022/11/16 03:43:19;;;;;;;37.65;20.67;;;;;;;;;;5115524;28;20016;-74
2022/11/16 03:46:05;;;;;;;45.63;21.77;;;;;;;;;;5115138;28;20015;-72
2022/11/16 03:48:55;;;;;;;35.83;20.77;;;;;;;;;;5100195;28;20110;-75
2022/11/16 03:51:41;;;;;;;40.45;20.58;;;;;;;;;;5098622;28;20027;-73
2022/11/16 03:54:27;;;;;;;40.13;21.23;;;;;;;;;;5115310;28;20088;-74
2022/11/16 03:57:16;;;;;;;37.85;21.42;;;;;;;;;;5114697;28;20027;-74
2022/11/16 04:00:03;;;;;;;39.85;21.52;;;;;;;;;;5113829;28;20024;-73
2022/11/16 04:02:49;;;;;;;39.00;20.98;;;;;;;;;;5115330;28;20078;-74
2022/11/16 04:24:12;;;;;;;40.67;21.00;;;;;;;;;;5114824;28;20340;-74
2022/11/16 04:30:03;;;;;;;40.53;19.92;;;;;;;;;;5114954;28;20011;-73
2022/11/16 04:38:57;;;;;;;37.40;19.17;;;;;;;;;;5115101;28;20105;-73
2022/11/16 04:47:51;;;;;;;39.88;19.38;;;;;;;;;;5114189;28;20035;-73
2022/11/16 04:50:37;;;;;;;35.25;19.48;;;;;;;;;;5115226;28;20020;-73
2022/11/16 04:53:25;;;;;;;41.65;20.05;;;;;;;;;;5099691;28;20098;-73
2022/11/16 04:56:12;;;;;;;38.47;20.25;;;;;;;;;;5113863;28;20086;-73
2022/11/16 04:58:57;;;;;;;33.67;18.38;;;;;;;;;;5119537;28;20035;-74
2022/11/16 05:04:47;;;;;;;33.42;17.88;;;;;;;;;;5118989;28;20090;-75
2022/11/16 05:07:33;;;;;;;32.78;18.27;;;;;;;;;;5103410;28;20098;-73
2022/11/16 05:10:18;;;;;;;31.73;17.67;;;;;;;;;;5118074;28;20016;-75
2022/11/16 05:13:04;;;;;;;35.72;18.98;;;;;;;;;;5118495;28;20359;-74
2022/11/16 05:15:50;;;;;;;34.28;19.02;;;;;;;;;;5103398;28;20028;-72
2022/11/16 05:18:35;;;;;;;34.92;18.60;;;;;;;;;;5103123;28;20035;-71
2022/11/16 05:21:21;;;;;;;34.40;18.65;;;;;;;;;;5117898;28;20030;-72
2022/11/16 05:27:12;;;;;;;34.70;19.10;;;;;;;;;;5117379;28;20011;-72
2022/11/16 05:29:58;;;;;;;35.78;18.65;;;;;;;;;;5117916;28;20347;-71
2022/11/16 05:32:43;;;;;;;34.20;19.02;;;;;;;;;;5118409;28;20034;-71
2022/11/16 05:35:29;;;;;;;36.03;19.35;;;;;;;;;;5101859;28;20028;-71
2022/11/16 05:38:15;;;;;;;32.95;18.92;;;;;;;;;;5102663;28;20188;-73
2022/11/16 05:41:00;;;;;;;34.80;18.75;;;;;;;;;;5117430;28;20020;-71
2022/11/16 05:43:46;;;;;;;34.42;19.52;;;;;;;;;;5117549;28;20019;-71
2022/11/16 05:46:31;;;;;;;33.80;18.50;;;;;;;;;;5117700;28;20355;-71
2022/11/16 05:49:17;;;;;;;32.47;18.55;;;;;;;;;;5102893;28;20031;-72
2022/11/16 05:52:03;;;;;;;32.83;19.42;;;;;;;;;;5117344;28;20035;-72
2022/11/16 05:54:49;;;;;;;31.45;17.98;;;;;;;;;;5116996;28;20115;-70
2022/11/16 05:57:34;;;;;;;34.35;20.05;;;;;;;;;;5102266;28;20019;-71
2022/11/16 06:00:20;;;;;;;35.70;19.25;;;;;;;;;;5117147;28;20023;-71
2022/11/16 06:03:05;;;;;;;34.20;18.98;;;;;;;;;;5102016;28;20016;-71
2022/11/16 06:05:53;;;;;;;36.28;19.83;;;;;;;;;;5116957;28;20016;-71
2022/11/16 06:08:38;;;;;;;35.58;19.60;;;;;;;;;;5101912;28;20348;-72
2022/11/16 06:11:24;;;;;;;34.92;19.98;;;;;;;;;;5117484;28;20031;-70
2022/11/16 06:14:10;;;;;;;34.10;19.58;;;;;;;;;;5115461;28;20078;-71
2022/11/16 06:16:55;;;;;;;37.47;19.48;;;;;;;;;;5101967;28;20094;-71
2022/11/16 06:19:41;;;;;;;38.65;20.52;;;;;;;;;;5116976;28;20386;-72
2022/11/16 06:22:26;;;;;;;35.80;19.55;;;;;;;;;;5116849;28;20019;-72
2022/11/16 06:25:12;;;;;;;38.85;20.13;;;;;;;;;;5116957;28;20031;-72
2022/11/16 06:27:58;;;;;;;41.88;21.50;;;;;;;;;;5115639;28;20030;-71
2022/11/16 06:30:43;;;;;;;39.72;21.27;;;;;;;;;;5101750;28;20054;-71
2022/11/16 06:33:29;;;;;;;34.75;20.38;;;;;;;;;;5116603;28;20057;-71
2022/11/16 06:36:14;;;;;;;35.95;19.73;;;;;;;;;;5101029;28;20027;-71
2022/11/16 06:39:00;;;;;;;36.13;20.67;;;;;;;;;;5115693;28;20022;-71
2022/11/16 06:41:46;;;;;;;37.35;20.52;;;;;;;;;;5115677;28;20027;-71
2022/11/16 06:44:31;;;;;;;38.00;21.25;;;;;;;;;;5116287;28;20031;-71
2022/11/16 06:47:17;;;;;;;40.13;23.20;;;;;;;;;;5116166;28;20015;-71
2022/11/16 06:50:02;;;;;;;41.35;24.15;;;;;;;;;;5116628;28;20344;-71
2022/11/16 06:52:48;;;;;;;37.53;22.20;;;;;;;;;;5116422;28;20391;-72
2022/11/16 06:55:34;;;;;;;38.17;21.95;;;;;;;;;;5116225;28;20020;-71
2022/11/16 06:58:19;;;;;;;42.00;22.42;;;;;;;;;;5115231;28;20030;-71
2022/11/16 07:01:06;;;;;;;35.75;20.63;;;;;;;;;;5116176;28;20050;-71
2022/11/16 07:03:51;;;;;;;43.35;23.08;;;;;;;;;;5116363;28;20321;-73
2022/11/16 07:06:37;;;;;;;39.90;21.92;;;;;;;;;;5117023;28;20023;-73
2022/11/16 07:09:23;;;;;;;43.28;22.63;;;;;;;;;;5114482;28;20076;-73
2022/11/16 07:12:08;;;;;;;40.60;22.67;;;;;;;;;;5114275;28;20035;-74
2022/11/16 07:14:54;;;;;;;38.33;21.30;;;;;;;;;;5127844;28;20023;-73
2022/11/16 07:17:41;;;;;;;38.67;22.02;;;;;;;;;;5118918;28;20059;-73
2022/11/16 07:20:26;;;;;;;44.95;24.90;;;;;;;;;;5103264;28;20052;-74
2022/11/16 07:23:12;;;;;;;41.28;22.88;;;;;;;;;;5116254;28;20107;-72
2022/11/16 07:26:02;;;;;;;39.67;22.88;;;;;;;;;;5119422;28;20016;-78
2022/11/16 07:28:47;;;;;;;42.78;24.73;;;;;;;;;;5119492;28;20034;-78
2022/11/16 07:31:33;;;;;;;41.63;22.83;;;;;;;;;;5117732;28;20103;-73
2022/11/16 07:34:18;;;;;;;42.13;23.77;;;;;;;;;;5106280;28;20015;-78
2022/11/16 07:37:04;;;;;;;46.10;24.95;;;;;;;;;;5124642;28;20108;-75
2022/11/16 07:39:49;;;;;;;42.88;23.25;;;;;;;;;;5117901;28;20436;-78
2022/11/16 07:42:35;;;;;;;44.05;24.92;;;;;;;;;;5114740;28;20019;-76
2022/11/16 07:45:21;;;;;;;42.53;23.05;;;;;;;;;;5115850;28;20129;-70
2022/11/16 07:48:06;;;;;;;45.88;22.85;;;;;;;;;;5115168;28;20436;-69
2022/11/16 07:50:52;;;;;;;44.13;24.20;;;;;;;;;;5101318;28;20038;-72
2022/11/16 07:53:38;;;;;;;42.53;23.10;;;;;;;;;;5116259;28;20047;-73
2022/11/16 07:56:24;;;;;;;52.03;24.02;;;;;;;;;;5115392;28;20034;-72
2022/11/16 07:59:09;;;;;;;45.55;24.80;;;;;;;;;;5115387;28;20020;-74
2022/11/16 08:01:55;;;;;;;40.83;23.42;;;;;;;;;;5114537;28;20114;-73
2022/11/16 08:04:41;;;;;;;43.78;24.35;;;;;;;;;;5100468;28;20022;-71
2022/11/16 08:07:26;;;;;;;42.60;24.90;;;;;;;;;;5114374;28;20019;-74
2022/11/16 08:10:12;;;;;;;47.10;25.23;;;;;;;;;;5100291;28;20030;-73
2022/11/16 08:12:58;;;;;;;47.80;25.60;;;;;;;;;;5101271;28;20071;-72
2022/11/16 08:15:43;;;;;;;48.65;27.73;;;;;;;;;;5114073;28;20082;-73
2022/11/16 08:18:29;;;;;;;47.88;26.38;;;;;;;;;;5115221;28;20023;-74
2022/11/16 08:21:15;;;;;;;45.60;25.42;;;;;;;;;;5099256;28;20027;-73
2022/11/16 08:24:01;;;;;;;48.22;26.00;;;;;;;;;;5100419;28;20051;-74
2022/11/16 08:26:47;;;;;;;44.75;25.55;;;;;;;;;;5100220;28;20019;-75
2022/11/16 08:29:33;;;;;;;47.05;25.42;;;;;;;;;;5100109;28;20106;-74
2022/11/16 08:32:19;;;;;;;44.55;25.45;;;;;;;;;;5116034;28;20027;-73
2022/11/16 08:35:05;;;;;;;47.67;24.92;;;;;;;;;;5119016;28;20099;-73
2022/11/16 08:37:50;;;;;;;46.58;26.23;;;;;;;;;;5103798;28;20071;-73
2022/11/16 08:40:37;;;;;;;44.47;26.38;;;;;;;;;;5104058;28;20400;-73
2022/11/16 08:43:22;;;;;;;46.13;25.70;;;;;;;;;;5119226;28;20077;-74
2022/11/16 08:46:08;;;;;;;44.15;26.27;;;;;;;;;;5103728;28;20057;-73
2022/11/16 08:48:55;;;;;;;48.08;26.38;;;;;;;;;;5118780;28;20062;-73
2022/11/16 08:51:41;;;;;;;46.00;25.40;;;;;;;;;;5119010;28;20482;-73
2022/11/16 08:54:28;;;;;;;50.22;27.08;;;;;;;;;;5118204;28;20536;-73
2022/11/16 08:57:13;;;;;;;45.33;25.92;;;;;;;;;;5104456;28;20031;-75
2022/11/16 08:59:59;;;;;;;44.35;24.83;;;;;;;;;;5104006;28;20032;-74
2022/11/16 09:02:44;;;;;;;48.05;25.50;;;;;;;;;;5103120;28;20051;-73
2022/11/16 09:05:30;;;;;;;46.53;26.05;;;;;;;;;;5118949;28;20073;-75
2022/11/16 09:08:15;;;;;;;45.60;25.25;;;;;;;;;;5118060;28;20100;-73
2022/11/16 09:11:05;;;;;;;53.90;28.52;;;;;;;;;;5104232;28;20038;-74
2022/11/16 09:13:52;;;;;;;48.20;25.98;;;;;;;;;;5103710;28;20024;-74
2022/11/16 09:16:37;;;;;;;50.60;28.80;;;;;;;;;;5118019;28;20058;-74
2022/11/16 09:19:23;;;;;;;52.85;29.08;;;;;;;;;;5117632;28;20031;-73
2022/11/16 09:22:09;;;;;;;52.28;27.70;;;;;;;;;;5118066;28;20035;-75
2022/11/16 09:24:54;;;;;;;46.92;27.75;;;;;;;;;;5117687;28;20386;-74
2022/11/16 09:27:40;;;;;;;50.53;29.20;;;;;;;;;;5117907;28;20424;-74
2022/11/16 09:30:25;;;;;;;51.83;28.67;;;;;;;;;;5118329;28;20024;-75
2022/11/16 09:33:12;;;;;;;53.85;28.85;;;;;;;;;;5117792;28;20024;-73
2022/11/16 09:36:01;;;;;;;49.30;27.63;;;;;;;;;;5118270;28;20034;-74
2022/11/16 09:38:47;;;;;;;49.97;27.52;;;;;;;;;;5116735;28;20107;-70
2022/11/16 09:41:41;;;;;;;47.45;27.10;;;;;;;;;;5117242;28;20436;-75
2022/11/16 09:44:32;;;;;;;51.10;26.45;;;;;;;;;;5117118;28;20029;-74
2022/11/16 09:47:20;;;;;;;49.25;27.33;;;;;;;;;;5117348;28;20015;-74
2022/11/16 09:50:07;;;;;;;57.75;31.38;;;;;;;;;;5117980;28;20016;-75
2022/11/16 09:52:54;;;;;;;46.88;26.08;;;;;;;;;;5117743;28;20061;-73
2022/11/16 09:55:49;;;;;;;53.42;27.90;;;;;;;;;;5118371;28;20024;-72
2022/11/16 09:59:00;;;;;;;49.63;27.25;;;;;;;;;;5118160;28;20047;-75
2022/11/16 10:02:04;;;;;;;52.42;26.55;;;;;;;;;;5093540;28;20462;-74
2022/11/16 10:04:52;;;;;;;45.80;26.35;;;;;;;;;;5101868;28;20037;-73
2022/11/16 10:07:40;;;;;;;50.13;26.27;;;;;;;;;;5116873;28;20059;-73
2022/11/16 10:10:33;;;;;;;51.50;26.98;;;;;;;;;;5117391;28;20030;-74
2022/11/16 10:13:45;;;;;;;51.67;28.52;;;;;;;;;;5117329;28;20042;-73
2022/11/16 10:16:37;;;;;;;49.17;25.73;;;;;;;;;;5093801;28;20032;-73
2022/11/16 10:19:25;;;;;;;47.72;25.20;;;;;;;;;;5117427;28;20028;-73
2022/11/16 10:22:20;;;;;;;44.42;24.95;;;;;;;;;;5116891;28;20463;-74
2022/11/16 10:25:13;;;;;;;50.75;27.40;;;;;;;;;;5116754;28;20030;-74
2022/11/16 10:28:09;;;;;;;48.53;26.52;;;;;;;;;;5116242;28;20336;-74
2022/11/16 10:31:02;;;;;;;46.47;26.98;;;;;;;;;;5102690;28;20020;-74
2022/11/16 10:33:49;;;;;;;45.40;26.23;;;;;;;;;;5119030;28;20348;-75
2022/11/16 10:36:36;;;;;;;49.92;27.38;;;;;;;;;;5116593;28;20047;-73
2022/11/16 10:39:23;;;;;;;46.50;26.30;;;;;;;;;;5116364;28;20047;-73
2022/11/16 10:42:14;;;;;;;48.42;27.35;;;;;;;;;;5116735;28;20027;-74
2022/11/16 10:45:10;;;;;;;51.70;27.80;;;;;;;;;;5116300;28;20019;-73
2022/11/16 10:47:59;;;;;;;47.88;26.17;;;;;;;;;;5117090;28;20020;-73
2022/11/16 10:50:46;;;;;;;48.13;27.30;;;;;;;;;;5116307;28;20317;-74
2022/11/16 10:53:33;;;;;;;48.40;27.75;;;;;;;;;;5116995;28;20081;-74
2022/11/16 10:56:24;;;;;;;46.15;26.63;;;;;;;;;;5115677;28;20107;-73
2022/11/16 10:59:14;;;;;;;50.88;27.48;;;;;;;;;;5102913;28;20020;-74
2022/11/16 11:02:19;;;;;;;50.72;28.20;;;;;;;;;;5117070;28;20352;-73
2022/11/16 11:05:18;;;;;;;50.08;28.10;;;;;;;;;;5116660;28;20016;-73
2022/11/16 11:08:04;;;;;;;50.28;27.67;;;;;;;;;;5117301;28;20026;-74
2022/11/16 11:10:57;;;;;;;56.72;29.67;;;;;;;;;;5116293;28;20505;-73
2022/11/16 11:13:42;;;;;;;58.45;32.08;;;;;;;;;;5117781;28;20016;-73
2022/11/16 11:16:28;;;;;;;55.60;31.13;;;;;;;;;;5116958;28;20351;-73
2022/11/16 11:19:18;;;;;;;54.42;30.58;;;;;;;;;;5117935;28;20448;-73
2022/11/16 11:22:03;;;;;;;59.92;31.08;;;;;;;;;;5116303;28;20440;-73
2022/11/16 11:24:49;;;;;;;51.25;29.70;;;;;;;;;;5101935;28;20028;-74
2022/11/16 11:27:35;;;;;;;52.85;29.08;;;;;;;;;;5115990;28;20424;-73
2022/11/16 11:30:20;;;;;;;52.42;29.90;;;;;;;;;;5101035;28;20031;-72
2022/11/16 11:33:10;;;;;;;55.15;30.95;;;;;;;;;;5117938;28;20489;-73
2022/11/16 11:35:59;;;;;;;55.75;30.40;;;;;;;;;;5107081;28;20440;-73
2022/11/16 11:39:03;;;;;;;53.03;29.60;;;;;;;;;;5101219;28;20038;-73
2022/11/16 11:42:07;;;;;;;56.80;30.80;;;;;;;;;;5100479;28;20020;-74
2022/11/16 11:44:56;;;;;;;56.05;31.02;;;;;;;;;;5102126;28;20055;-74
2022/11/16 11:47:43;;;;;;;52.40;28.50;;;;;;;;;;5115370;28;20024;-73
2022/11/16 11:50:35;;;;;;;55.42;31.13;;;;;;;;;;5100591;28;20107;-73
2022/11/16 11:53:26;;;;;;;52.67;31.08;;;;;;;;;;5115232;28;20025;-75
2022/11/16 11:56:13;;;;;;;62.42;32.55;;;;;;;;;;5100714;28;20024;-74
2022/11/16 11:58:59;;;;;;;51.25;29.48;;;;;;;;;;5118034;28;20444;-74
2022/11/16 12:01:50;;;;;;;53.95;31.35;;;;;;;;;;5119843;28;20034;-76
2022/11/16 12:04:55;;;;;;;54.30;28.95;;;;;;;;;;5116407;28;20047;-75
2022/11/16 12:08:06;;;;;;;51.20;29.98;;;;;;;;;;5100672;28;20149;-73
2022/11/16 12:10:57;;;;;;;50.55;28.42;;;;;;;;;;5114228;28;20023;-74
2022/11/16 12:14:01;;;;;;;46.25;28.13;;;;;;;;;;5114549;28;20023;-74
2022/11/16 12:17:05;;;;;;;51.58;29.52;;;;;;;;;;5114786;28;20026;-73
2022/11/16 12:20:06;;;;;;;51.13;28.65;;;;;;;;;;5116532;28;20031;-72
2022/11/16 12:23:04;;;;;;;50.60;29.42;;;;;;;;;;5100540;28;20077;-73
2022/11/16 12:26:19;;;;;;;51.28;29.50;;;;;;;;;;5099691;28;20008;-74
2022/11/16 12:29:05;;;;;;;48.90;29.17;;;;;;;;;;5026096;28;20020;-74
2022/11/16 12:32:11;;;;;;;50.55;30.38;;;;;;;;;;5100790;28;20095;-74
2022/11/16 12:35:02;;;;;;;49.67;30.23;;;;;;;;;;5014344;28;20030;-75
2022/11/16 12:37:57;;;;;;;58.65;34.35;;;;;;;;;;5113570;28;20044;-75
2022/11/16 12:40:55;;;;;;;49.75;29.75;;;;;;;;;;5099988;28;20540;-75
2022/11/16 12:43:44;;;;;;;52.83;30.45;;;;;;;;;;5100031;28;20023;-75
2022/11/16 12:46:47;;;;;;;53.70;29.50;;;;;;;;;;5115232;28;20028;-74
2022/11/16 12:49:48;;;;;;;51.58;29.63;;;;;;;;;;5099767;28;20023;-73
2022/11/16 12:52:53;;;;;;;50.17;30.13;;;;;;;;;;5099804;28;20444;-73
2022/11/16 12:55:41;;;;;;;51.17;28.23;;;;;;;;;;5113991;28;20460;-71
2022/11/16 12:58:29;;;;;;;50.60;30.25;;;;;;;;;;5114190;28;20398;-71
2022/11/16 13:01:28;;;;;;;47.42;28.75;;;;;;;;;;5099461;28;20024;-72
2022/11/16 13:04:20;;;;;;;46.67;28.27;;;;;;;;;;5099736;28;20015;-73
2022/11/16 13:07:05;;;;;;;47.13;28.73;;;;;;;;;;5114523;28;20024;-74
2022/11/16 13:09:56;;;;;;;45.90;28.25;;;;;;;;;;5114504;28;20052;-75
2022/11/16 13:12:43;;;;;;;53.53;31.05;;;;;;;;;;5114932;28;20079;-75
2022/11/16 13:15:33;;;;;;;54.63;30.48;;;;;;;;;;5100479;28;20103;-71
2022/11/16 13:18:19;;;;;;;49.05;29.80;;;;;;;;;;5114626;28;20020;-74
2022/11/16 13:21:05;;;;;;;52.67;30.70;;;;;;;;;;5118644;28;20034;-75
2022/11/16 13:24:06;;;;;;;50.08;29.63;;;;;;;;;;5118229;28;20026;-74
2022/11/16 13:27:01;;;;;;;52.38;30.80;;;;;;;;;;5104022;28;20096;-73
2022/11/16 13:29:49;;;;;;;51.17;30.05;;;;;;;;;;5118122;28;20092;-76
2022/11/16 13:32:35;;;;;;;51.90;29.88;;;;;;;;;;5119444;28;20019;-73
2022/11/16 13:35:21;;;;;;;50.92;30.13;;;;;;;;;;5102928;28;20030;-74
2022/11/16 13:38:08;;;;;;;54.97;29.33;;;;;;;;;;5118055;28;20090;-74
2022/11/16 13:41:13;;;;;;;54.83;30.05;;;;;;;;;;5118878;28;20024;-74
2022/11/16 13:43:59;;;;;;;49.88;29.67;;;;;;;;;;5118717;28;20142;-75
2022/11/16 13:46:45;;;;;;;51.15;30.40;;;;;;;;;;5102168;28;20173;-75
2022/11/16 13:49:35;;;;;;;52.45;32.72;;;;;;;;;;5117726;28;20016;-75
2022/11/16 13:52:21;;;;;;;53.85;32.20;;;;;;;;;;5103643;28;20027;-76
2022/11/16 13:55:25;;;;;;;53.03;31.13;;;;;;;;;;5103502;28;20023;-78
2022/11/16 13:58:18;;;;;;;51.15;31.17;;;;;;;;;;5117345;28;20096;-73
2022/11/16 14:01:09;;;;;;;75.97;42.60;;;;;;;;;;5118389;28;20447;-74
2022/11/16 14:04:15;;;;;;;64.90;37.22;;;;;;;;;;5116521;28;20035;-74
2022/11/16 14:07:01;;;;;;;62.50;37.50;;;;;;;;;;5102937;28;20030;-74
2022/11/16 14:09:48;;;;;;;62.05;36.38;;;;;;;;;;5102942;28;20016;-73
2022/11/16 14:12:36;;;;;;;67.63;38.90;;;;;;;;;;5117626;28;20051;-73
2022/11/16 14:15:27;;;;;;;73.70;41.88;;;;;;;;;;5101299;28;20031;-74
2022/11/16 14:18:12;;;;;;;95.47;53.22;;;;;;;;;;5116461;28;20051;-75
2022/11/16 14:21:03;;;;;;;72.45;41.80;;;;;;;;;;5116624;28;20460;-75
2022/11/16 14:23:55;;;;;;;70.70;39.78;;;;;;;;;;5115982;28;20016;-75
2022/11/16 14:26:43;;;;;;;78.97;44.22;;;;;;;;;;5100809;28;20069;-75
2022/11/16 14:29:35;;;;;;;65.10;37.40;;;;;;;;;;5114561;28;20507;-76
2022/11/16 14:32:23;;;;;;;64.30;35.75;;;;;;;;;;5100906;28;20074;-77
2022/11/16 14:35:21;;;;;;;62.78;35.13;;;;;;;;;;5115962;28;20050;-75
2022/11/16 14:38:16;;;;;;;62.47;36.25;;;;;;;;;;5116459;28;20047;-76
2022/11/16 14:41:03;;;;;;;64.95;37.38;;;;;;;;;;5100437;28;20024;-76
2022/11/16 14:43:53;;;;;;;65.30;37.95;;;;;;;;;;5100573;28;20019;-75
2022/11/16 14:46:40;;;;;;;68.03;39.63;;;;;;;;;;5114089;28;20024;-76
2022/11/16 14:49:26;;;;;;;63.35;36.30;;;;;;;;;;5115652;28;20034;-76
2022/11/16 14:52:13;;;;;;;64.72;37.58;;;;;;;;;;5101284;28;20016;-76
2022/11/16 14:55:00;;;;;;;68.85;39.53;;;;;;;;;;5114731;28;20030;-78
2022/11/16 14:57:46;;;;;;;68.15;38.78;;;;;;;;;;5114944;28;20020;-77
2022/11/16 15:00:32;;;;;;;67.18;38.38;;;;;;;;;;5115219;28;20069;-76
2022/11/16 15:03:17;;;;;;;68.45;37.47;;;;;;;;;;5100280;28;20169;-75
2022/11/16 15:06:05;;;;;;;71.10;39.40;;;;;;;;;;5115918;28;20023;-77
2022/11/16 15:08:56;;;;;;;66.03;37.67;;;;;;;;;;5115262;28;20103;-77
2022/11/16 15:14:53;;;;;;;65.75;37.83;;;;;;;;;;5115431;28;20030;-76
2022/11/16 15:17:40;;;;;;;70.88;40.83;;;;;;;;;;5114695;28;20110;-76
2022/11/16 15:20:27;;;;;;;71.68;40.88;;;;;;;;;;5115575;28;20026;-78
2022/11/16 15:23:13;;;;;;;74.68;41.15;;;;;;;;;;5100371;28;20024;-76
2022/11/16 15:26:01;;;;;;;74.03;40.03;;;;;;;;;;5119261;28;20015;-77
2022/11/16 15:28:48;;;;;;;75.95;43.33;;;;;;;;;;5099938;28;20081;-76
2022/11/16 15:31:35;;;;;;;76.30;42.78;;;;;;;;;;5114213;28;20445;-77
2022/11/16 15:34:20;;;;;;;79.90;43.75;;;;;;;;;;5100891;28;20046;-76
2022/11/16 15:37:09;;;;;;;82.72;43.75;;;;;;;;;;5115189;28;20048;-76
2022/11/16 15:39:56;;;;;;;79.13;43.92;;;;;;;;;;5114796;28;20015;-76
2022/11/16 15:42:42;;;;;;;76.82;41.50;;;;;;;;;;5113765;28;20080;-76
2022/11/16 15:45:28;;;;;;;75.75;41.55;;;;;;;;;;5105857;28;20415;-77
2022/11/16 15:48:21;;;;;;;82.85;44.45;;;;;;;;;;5114398;28;20028;-76
2022/11/16 15:51:22;;;;;;;72.28;41.13;;;;;;;;;;5114865;28;20015;-77
2022/11/16 15:54:21;;;;;;;75.70;43.03;;;;;;;;;;5114409;28;20028;-77
2022/11/16 15:57:08;;;;;;;81.85;44.80;;;;;;;;;;5114133;28;20114;-78
2022/11/16 15:59:55;;;;;;;87.80;44.90;;;;;;;;;;5100500;28;20019;-76
2022/11/16 16:02:43;;;;;;;80.45;45.97;;;;;;;;;;5113844;28;20103;-77
2022/11/16 16:05:32;;;;;;;83.25;46.65;;;;;;;;;;5100374;28;20011;-78
2022/11/16 16:08:31;;;;;;;83.97;47.10;;;;;;;;;;5114398;28;20023;-78
2022/11/16 16:11:17;;;;;;;92.63;45.67;;;;;;;;;;5099950;28;20023;-78
2022/11/16 16:14:08;;;;;;;88.15;45.10;;;;;;;;;;5115279;28;20371;-77
2022/11/16 16:16:55;;;;;;;89.70;47.47;;;;;;;;;;5106241;28;20035;-75
2022/11/16 16:19:42;;;;;;;89.45;47.35;;;;;;;;;;5114996;28;20088;-75
2022/11/16 16:22:29;;;;;;;99.38;50.35;;;;;;;;;;5113791;28;20059;-77
2022/11/16 16:25:28;;;;;;;94.63;50.60;;;;;;;;;;5115292;28;20474;-77
2022/11/16 16:28:14;;;;;;;100.18;54.47;;;;;;;;;;5113671;28;20028;-76
2022/11/16 16:30:59;;;;;;;111.93;60.78;;;;;;;;;;5115051;28;20030;-79
2022/11/16 16:33:45;;;;;;;103.97;58.13;;;;;;;;;;5115589;28;20450;-78
2022/11/16 16:36:31;;;;;;;107.63;57.75;;;;;;;;;;5114591;28;20040;-79
2022/11/16 16:39:16;;;;;;;130.30;71.32;;;;;;;;;;5114204;28;20448;-77
2022/11/16 16:42:02;;;;;;;116.75;67.75;;;;;;;;;;5114905;28;20027;-79
2022/11/16 16:44:48;;;;;;;126.90;74.47;;;;;;;;;;5114954;28;20153;-76
2022/11/16 16:47:33;;;;;;;131.85;74.40;;;;;;;;;;5100140;28;20016;-77
2022/11/16 16:50:19;;;;;;;147.07;81.57;;;;;;;;;;5113986;28;20121;-75
2022/11/16 16:53:05;;;;;;;151.75;84.40;;;;;;;;;;5115288;28;20368;-76
2022/11/16 16:55:51;;;;;;;168.25;90.35;;;;;;;;;;5104093;28;20024;-77
2022/11/16 16:58:36;;;;;;;150.00;85.68;;;;;;;;;;5104611;28;20027;-76
2022/11/16 17:01:22;;;;;;;142.85;82.38;;;;;;;;;;5104524;28;20332;-76
2022/11/16 17:04:07;;;;;;;152.68;85.35;;;;;;;;;;5118482;28;20011;-76